createdAt,value
2022-07-30T00:01:52.550Z,94335.22
2022-07-30T00:04:19.255Z,94327.22
2022-07-30T00:06:45.872Z,94331.72
2022-07-30T00:09:12.510Z,94331.72
2022-07-30T00:11:39.076Z,94329.53
2022-07-30T00:14:05.919Z,94323.63
2022-07-30T00:16:32.637Z,94326.69
2022-07-30T00:18:59.771Z,94329.09
2022-07-30T00:21:36.403Z,94330.66
2022-07-30T00:24:07.104Z,94327.25
2022-07-30T00:26:33.678Z,94329.88
2022-07-30T00:29:00.619Z,94323.06
2022-07-30T00:31:28.964Z,94326.03
2022-07-30T00:33:55.589Z,94328.22
2022-07-30T00:36:22.591Z,94322.97
2022-07-30T00:38:49.413Z,94325.25
2022-07-30T00:41:16.378Z,94329.09
2022-07-30T00:43:43.761Z,94322.75
2022-07-30T00:46:10.487Z,94322.31
2022-07-30T00:48:37.318Z,94327.13
2022-07-30T00:51:04.076Z,94337.22
2022-07-30T00:53:30.829Z,94340.94
2022-07-30T00:55:57.675Z,94325.81
2022-07-30T00:58:24.420Z,94327.97
2022-07-30T01:00:51.427Z,94329.28
2022-07-30T01:03:18.091Z,94339.50
2022-07-30T01:05:45.352Z,94345.06
2022-07-30T01:08:11.986Z,94338.50
2022-07-30T01:10:38.641Z,94336.38
2022-07-30T01:13:06.578Z,94338.44
2022-07-30T01:15:34.495Z,94340.19
2022-07-30T01:18:05.328Z,94338.66
2022-07-30T01:20:41.070Z,94343.47
2022-07-30T01:23:19.597Z,94337.19
2022-07-30T01:25:48.802Z,94338.72
2022-07-30T01:28:20.885Z,94345.84
2022-07-30T01:30:50.098Z,94342.34
2022-07-30T01:33:20.206Z,94341.88
2022-07-30T01:35:50.529Z,94348.44
2022-07-30T01:38:21.825Z,94343.34
2022-07-30T01:40:51.208Z,94340.91
2022-07-30T01:43:19.991Z,94346.38
2022-07-30T01:45:48.513Z,94345.00
2022-07-30T01:48:19.937Z,94344.75
2022-07-30T01:50:50.415Z,94348.97
2022-07-30T01:53:19.159Z,94346.66
2022-07-30T01:55:46.740Z,94347.78
2022-07-30T01:58:16.583Z,94344.38
2022-07-30T02:00:48.057Z,94342.03
2022-07-30T02:03:14.833Z,94347.28
2022-07-30T02:05:50.417Z,94348.84
2022-07-30T02:08:25.976Z,94345.88
2022-07-30T02:11:04.608Z,94338.78
2022-07-30T02:13:34.159Z,94340.53
2022-07-30T02:16:15.146Z,94344.22
2022-07-30T02:18:58.565Z,94348.59
2022-07-30T02:21:36.700Z,94347.03
2022-07-30T02:24:08.305Z,94344.41
2022-07-30T02:26:37.074Z,94349.53
2022-07-30T02:29:09.567Z,94341.97
2022-07-30T02:31:40.516Z,94343.06
2022-07-30T02:34:09.087Z,94349.72
2022-07-30T02:36:37.753Z,94346.31
2022-07-30T02:39:05.679Z,94344.81
2022-07-30T02:41:33.341Z,94344.03
2022-07-30T02:44:00.835Z,94346.66
2022-07-30T02:46:28.921Z,94354.53
2022-07-30T02:49:33.405Z,94347.28
2022-07-30T02:52:02.809Z,94346.50
2022-07-30T02:54:31.489Z,94349.59
2022-07-30T02:57:00.895Z,94351.13
2022-07-30T02:59:31.523Z,94353.13
2022-07-30T03:01:59.500Z,94345.75
2022-07-30T03:04:27.857Z,94352.22
2022-07-30T03:06:55.683Z,94347.47
2022-07-30T03:09:22.784Z,94349.91
2022-07-30T03:11:53.735Z,94344.50
2022-07-30T03:14:20.752Z,94352.97
2022-07-30T03:16:54.202Z,94350.50
2022-07-30T03:19:24.925Z,94355.13
2022-07-30T03:21:56.205Z,94348.47
2022-07-30T03:24:24.630Z,94354.50
2022-07-30T03:26:54.177Z,94351.09
2022-07-30T03:29:24.198Z,94358.97
2022-07-30T03:31:51.724Z,94369.16
2022-07-30T03:34:21.201Z,94361.41
2022-07-30T03:36:50.155Z,94354.94
2022-07-30T03:39:18.401Z,94367.44
2022-07-30T03:41:46.796Z,94371.28
2022-07-30T03:44:16.005Z,94360.00
2022-07-30T03:46:43.565Z,94364.38
2022-07-30T03:49:12.033Z,94371.47
2022-07-30T03:51:43.792Z,94375.50
2022-07-30T03:54:13.814Z,94376.59
2022-07-30T03:56:41.090Z,94375.03
2022-07-30T03:59:13.075Z,94376.44
2022-07-30T04:01:40.898Z,94387.72
2022-07-30T04:04:16.202Z,94386.50
2022-07-30T04:06:43.186Z,94396.88
2022-07-30T04:09:11.791Z,94395.03
2022-07-30T04:11:41.379Z,94393.94
2022-07-30T04:14:15.928Z,94398.88
2022-07-30T04:17:03.789Z,94404.13
2022-07-30T04:19:44.663Z,94408.75
2022-07-30T04:22:13.478Z,94411.38
2022-07-30T04:24:40.742Z,94407.09
2022-07-30T04:27:07.896Z,94411.38
2022-07-30T04:29:34.792Z,94420.81
2022-07-30T04:32:01.747Z,94426.53
2022-07-30T04:34:55.802Z,94426.53
2022-07-30T04:37:57.780Z,94428.72
2022-07-30T04:40:25.130Z,94425.75
2022-07-30T04:42:51.847Z,94424.97
2022-07-30T04:45:20.283Z,94431.00
2022-07-30T04:47:58.127Z,94431.78
2022-07-30T04:51:01.768Z,94439.22
2022-07-30T04:53:29.644Z,94437.66
2022-07-30T04:56:01.326Z,94440.63
2022-07-30T04:58:30.112Z,94433.03
2022-07-30T05:00:58.121Z,94447.41
2022-07-30T05:03:30.165Z,94449.72
2022-07-30T05:05:58.599Z,94448.78
2022-07-30T05:08:29.821Z,94450.13
2022-07-30T05:11:00.198Z,94444.88
2022-07-30T05:13:34.524Z,94448.09
2022-07-30T05:16:07.140Z,94441.56
2022-07-30T05:18:35.268Z,94446.00
2022-07-30T05:21:01.982Z,94450.00
2022-07-30T05:23:31.837Z,94450.59
2022-07-30T05:26:27.528Z,94447.03
2022-07-30T05:28:56.947Z,94451.31
2022-07-30T05:31:53.433Z,94450.81
2022-07-30T05:34:20.952Z,94452.22
2022-07-30T05:36:47.645Z,94447.84
2022-07-30T05:39:17.012Z,94448.63
2022-07-30T05:41:52.749Z,94461.72
2022-07-30T05:44:42.675Z,94450.88
2022-07-30T05:47:09.280Z,94452.44
2022-07-30T05:49:37.964Z,94447.31
2022-07-30T05:52:08.602Z,94462.56
2022-07-30T05:54:35.442Z,94457.13
2022-07-30T05:57:37.357Z,94461.56
2022-07-30T06:00:07.582Z,94451.13
2022-07-30T06:02:43.559Z,94460.38
2022-07-30T06:05:19.790Z,94457.53
2022-07-30T06:07:46.861Z,94464.78
2022-07-30T06:10:14.547Z,94470.31
2022-07-30T06:12:42.418Z,94466.06
2022-07-30T06:15:11.112Z,94472.03
2022-07-30T06:17:57.205Z,94475.69
2022-07-30T06:20:40.231Z,94473.28
2022-07-30T06:23:14.657Z,94475.84
2022-07-30T06:26:07.494Z,94481.34
2022-07-30T06:28:38.206Z,94482.38
2022-07-30T06:31:13.717Z,94482.47
2022-07-30T06:33:40.421Z,94484.25
2022-07-30T06:36:07.238Z,94478.78
2022-07-30T06:38:45.841Z,94491.53
2022-07-30T06:41:15.861Z,94489.44
2022-07-30T06:43:53.111Z,94491.53
2022-07-30T06:46:42.547Z,94495.94
2022-07-30T06:49:13.005Z,94497.69
2022-07-30T06:51:39.677Z,94501.69
2022-07-30T06:54:06.580Z,94501.00
2022-07-30T06:56:33.183Z,94504.97
2022-07-30T06:59:03.973Z,94510.03
2022-07-30T07:01:49.719Z,94510.25
2022-07-30T07:04:16.750Z,94513.75
2022-07-30T07:06:44.118Z,94516.84
2022-07-30T07:09:15.110Z,94523.44
2022-07-30T07:11:48.306Z,94522.78
2022-07-30T07:14:18.072Z,94525.31
2022-07-30T07:16:44.896Z,94529.25
2022-07-30T07:19:59.918Z,94526.97
2022-07-30T07:22:32.194Z,94523.00
2022-07-30T07:24:58.822Z,94531.13
2022-07-30T07:27:28.804Z,94529.78
2022-07-30T07:30:04.392Z,94527.81
2022-07-30T07:32:35.245Z,94530.31
2022-07-30T07:35:02.793Z,94528.22
2022-07-30T07:37:30.289Z,94521.28
2022-07-30T07:39:57.204Z,94542.06
2022-07-30T07:42:24.086Z,94533.16
2022-07-30T07:44:52.486Z,94533.22
2022-07-30T07:47:19.231Z,94529.50
2022-07-30T07:50:00.596Z,94533.78
2022-07-30T07:52:27.213Z,94534.31
2022-07-30T07:54:54.664Z,94532.28
2022-07-30T07:57:21.991Z,94539.06
2022-07-30T07:59:48.887Z,94537.72
2022-07-30T08:02:25.851Z,94534.41
2022-07-30T08:04:58.561Z,94539.88
2022-07-30T08:07:43.149Z,94547.31
2022-07-30T08:10:15.048Z,94533.84
2022-07-30T08:12:59.949Z,94548.78
2022-07-30T08:15:52.468Z,94550.44
2022-07-30T08:18:54.097Z,94553.78
2022-07-30T08:21:40.911Z,94540.81
2022-07-30T08:24:08.854Z,94550.56
2022-07-30T08:26:35.512Z,94547.66
2022-07-30T08:29:02.380Z,94549.25
2022-07-30T08:31:29.001Z,94545.56
2022-07-30T08:33:55.629Z,94544.03
2022-07-30T08:36:25.987Z,94548.47
2022-07-30T08:38:53.668Z,94545.13
2022-07-30T08:41:21.193Z,94546.44
2022-07-30T08:43:50.933Z,94545.81
2022-07-30T08:46:24.455Z,94548.34
2022-07-30T08:49:00.561Z,94555.41
2022-07-30T08:51:35.570Z,94550.94
2022-07-30T08:54:27.103Z,94549.56
2022-07-30T08:56:54.503Z,94563.78
2022-07-30T08:59:23.693Z,94556.31
2022-07-30T09:01:52.041Z,94546.91
2022-07-30T09:04:18.955Z,94557.59
2022-07-30T09:06:47.036Z,94556.75
2022-07-30T09:09:14.949Z,94556.13
2022-07-30T09:11:41.589Z,94552.41
2022-07-30T09:14:13.811Z,94563.78
2022-07-30T09:16:44.341Z,94554.19
2022-07-30T09:19:20.503Z,94553.53
2022-07-30T09:22:00.744Z,94558.91
2022-07-30T09:24:56.157Z,94561.09
2022-07-30T09:27:49.794Z,94559.03
2022-07-30T09:30:48.657Z,94559.00
2022-07-30T09:33:47.944Z,94569.22
2022-07-30T09:36:35.601Z,94561.53
2022-07-30T09:39:36.802Z,94553.66
2022-07-30T09:42:17.741Z,94562.66
2022-07-30T09:44:45.469Z,94566.84
2022-07-30T09:47:36.957Z,94569.69
2022-07-30T09:50:11.398Z,94564.50
2022-07-30T09:52:43.849Z,94566.19
2022-07-30T09:55:13.321Z,94561.81
2022-07-30T09:58:01.579Z,94571.34
2022-07-30T10:00:30.637Z,94566.44
2022-07-30T10:03:42.568Z,94559.81
2022-07-30T10:06:37.995Z,94571.06
2022-07-30T10:09:30.946Z,94563.13
2022-07-30T10:12:02.561Z,94565.16
2022-07-30T10:14:34.192Z,94557.88
2022-07-30T10:17:09.508Z,94561.44
2022-07-30T10:19:39.955Z,94560.75
2022-07-30T10:22:27.500Z,94557.03
2022-07-30T10:25:18.781Z,94560.81
2022-07-30T10:28:15.434Z,94567.50
2022-07-30T10:30:43.634Z,94562.41
2022-07-30T10:33:34.207Z,94557.31
2022-07-30T10:35:59.109Z,94562.09
2022-07-30T10:38:30.301Z,94560.59
2022-07-30T10:41:08.116Z,94561.00
2022-07-30T10:44:12.016Z,94552.75
2022-07-30T10:47:07.941Z,94547.88
2022-07-30T10:49:41.338Z,94554.78
2022-07-30T10:52:10.383Z,94553.97
2022-07-30T10:54:42.463Z,94562.13
2022-07-30T10:57:14.963Z,94557.13
2022-07-30T10:59:52.457Z,94562.28
2022-07-30T11:02:20.350Z,94563.28
2022-07-30T11:04:47.814Z,94571.44
2022-07-30T11:07:29.521Z,94568.00
2022-07-30T11:10:04.301Z,94553.91
2022-07-30T11:12:45.659Z,94556.69
2022-07-30T11:15:18.729Z,94568.44
2022-07-30T11:18:01.198Z,94564.06
2022-07-30T11:20:30.671Z,94562.53
2022-07-30T11:23:29.088Z,94556.34
2022-07-30T11:26:02.076Z,94556.88
2022-07-30T11:28:43.470Z,94557.16
2022-07-30T11:31:36.904Z,94554.78
2022-07-30T11:34:20.028Z,94552.16
2022-07-30T11:37:18.056Z,94556.56
2022-07-30T11:39:54.581Z,94551.69
2022-07-30T11:42:33.042Z,94556.59
2022-07-30T11:45:23.041Z,94556.50
2022-07-30T11:47:57.990Z,94549.88
2022-07-30T11:50:33.283Z,94551.25
2022-07-30T11:53:06.188Z,94550.78
2022-07-30T11:55:35.709Z,94551.69
2022-07-30T11:58:05.976Z,94555.69
2022-07-30T12:00:40.659Z,94551.34
2022-07-30T12:03:15.412Z,94561.44
2022-07-30T12:05:43.562Z,94562.66
2022-07-30T12:08:35.230Z,94548.13
2022-07-30T12:11:01.575Z,94543.34
2022-07-30T12:13:43.927Z,94546.44
2022-07-30T12:16:14.273Z,94549.13
2022-07-30T12:18:40.901Z,94541.78
2022-07-30T12:21:12.078Z,94548.44
2022-07-30T12:23:39.119Z,94553.63
2022-07-30T12:26:05.973Z,94546.06
2022-07-30T12:28:34.451Z,94536.72
2022-07-30T12:31:04.606Z,94550.59
2022-07-30T12:33:31.422Z,94549.72
2022-07-30T12:36:00.647Z,94543.44
2022-07-30T12:38:28.588Z,94549.13
2022-07-30T12:41:04.944Z,94553.09
2022-07-30T12:43:49.841Z,94542.38
2022-07-30T12:46:27.310Z,94541.13
2022-07-30T12:49:21.109Z,94545.44
2022-07-30T12:51:59.696Z,94533.53
2022-07-30T12:54:27.483Z,94530.38
2022-07-30T12:57:03.287Z,94531.63
2022-07-30T12:59:31.641Z,94531.59
2022-07-30T13:02:00.631Z,94524.72
2022-07-30T13:04:28.099Z,94526.88
2022-07-30T13:07:08.144Z,94524.19
2022-07-30T13:09:35.187Z,94521.28
2022-07-30T13:12:01.928Z,94514.72
2022-07-30T13:14:28.665Z,94513.78
2022-07-30T13:16:58.273Z,94514.59
2022-07-30T13:19:26.430Z,94514.66
2022-07-30T13:21:53.090Z,94523.75
2022-07-30T13:24:20.068Z,94525.59
2022-07-30T13:26:47.066Z,94519.00
2022-07-30T13:29:13.820Z,94516.63
2022-07-30T13:31:43.015Z,94518.06
2022-07-30T13:34:11.390Z,94511.59
2022-07-30T13:36:38.135Z,94514.22
2022-07-30T13:39:04.765Z,94507.91
2022-07-30T13:41:31.466Z,94507.91
2022-07-30T13:43:58.052Z,94503.31
2022-07-30T13:46:24.699Z,94507.50
2022-07-30T13:48:51.380Z,94504.09
2022-07-30T13:51:18.746Z,94499.50
2022-07-30T13:53:45.572Z,94495.28
2022-07-30T13:56:12.661Z,94492.91
2022-07-30T13:58:40.217Z,94486.28
2022-07-30T14:01:09.451Z,94485.50
2022-07-30T14:03:47.098Z,94486.06
2022-07-30T14:06:16.293Z,94478.88
2022-07-30T14:08:42.886Z,94483.84
2022-07-30T14:11:09.503Z,94467.09
2022-07-30T14:13:36.105Z,94473.81
2022-07-30T14:16:02.722Z,94483.50
2022-07-30T14:18:29.892Z,94470.69
2022-07-30T14:20:56.502Z,94468.41
2022-07-30T14:23:23.432Z,94475.94
2022-07-30T14:25:50.209Z,94470.72
2022-07-30T14:28:16.811Z,94462.50
2022-07-30T14:30:43.757Z,94461.53
2022-07-30T14:33:10.706Z,94463.84
2022-07-30T14:35:37.390Z,94472.53
2022-07-30T14:38:04.420Z,94464.28
2022-07-30T14:40:32.459Z,94477.88
2022-07-30T14:42:59.492Z,94461.38
2022-07-30T14:45:26.279Z,94457.47
2022-07-30T14:47:56.376Z,94455.13
2022-07-30T14:50:23.123Z,94452.75
2022-07-30T14:52:50.493Z,94456.84
2022-07-30T14:55:17.445Z,94463.53
2022-07-30T14:57:44.348Z,94463.63
2022-07-30T15:00:11.973Z,94455.69
2022-07-30T15:02:38.907Z,94450.38
2022-07-30T15:05:06.160Z,94457.59
2022-07-30T15:07:34.605Z,94458.19
2022-07-30T15:10:02.579Z,94459.66
2022-07-30T15:12:29.273Z,94456.75
2022-07-30T15:14:55.937Z,94456.34
2022-07-30T15:17:22.586Z,94464.25
2022-07-30T15:19:51.128Z,94467.78
2022-07-30T15:22:21.108Z,94461.72
2022-07-30T15:24:48.742Z,94471.78
2022-07-30T15:27:15.614Z,94458.09
2022-07-30T15:29:42.266Z,94473.38
2022-07-30T15:32:08.991Z,94457.25
2022-07-30T15:34:35.742Z,94451.75
2022-07-30T15:37:03.311Z,94474.19
2022-07-30T15:39:32.378Z,94466.06
2022-07-30T15:42:00.622Z,94455.75
2022-07-30T15:44:27.748Z,94456.91
2022-07-30T15:46:54.975Z,94456.66
2022-07-30T15:49:21.674Z,94454.72
2022-07-30T15:51:51.854Z,94462.22
2022-07-30T15:54:23.322Z,94453.94
2022-07-30T15:56:51.133Z,94454.13
2022-07-30T15:59:18.093Z,94459.19
2022-07-30T16:01:45.156Z,94455.56
2022-07-30T16:04:19.061Z,94452.00
2022-07-30T16:06:48.213Z,94443.53
2022-07-30T16:09:16.249Z,94452.56
2022-07-30T16:11:43.137Z,94454.03
2022-07-30T16:14:10.407Z,94449.16
2022-07-30T16:16:37.493Z,94446.09
2022-07-30T16:19:04.438Z,94448.72
2022-07-30T16:21:31.107Z,94450.88
2022-07-30T16:23:57.713Z,94442.28
2022-07-30T16:26:24.490Z,94452.56
2022-07-30T16:28:51.197Z,94451.75
2022-07-30T16:31:17.922Z,94449.75
2022-07-30T16:33:44.589Z,94455.16
2022-07-30T16:36:11.552Z,94454.47
2022-07-30T16:38:38.231Z,94448.34
2022-07-30T16:41:04.883Z,94454.44
2022-07-30T16:43:32.080Z,94457.47
2022-07-30T16:46:00.030Z,94455.16
2022-07-30T16:48:26.694Z,94454.38
2022-07-30T16:50:53.727Z,94450.19
2022-07-30T16:53:20.840Z,94453.69
2022-07-30T16:55:47.703Z,94456.72
2022-07-30T16:58:14.476Z,94442.88
2022-07-30T17:00:41.251Z,94453.16
2022-07-30T17:03:08.241Z,94449.66
2022-07-30T17:05:35.030Z,94440.84
2022-07-30T17:08:04.684Z,94442.38
2022-07-30T17:10:31.436Z,94442.72
2022-07-30T17:12:58.205Z,94443.88
2022-07-30T17:15:32.770Z,94442.31
2022-07-30T17:18:03.518Z,94447.63
2022-07-30T17:20:31.445Z,94448.28
2022-07-30T17:22:58.044Z,94459.31
2022-07-30T17:25:28.317Z,94455.44
2022-07-30T17:27:57.041Z,94456.22
2022-07-30T17:30:24.297Z,94453.88
2022-07-30T17:32:51.040Z,94461.56
2022-07-30T17:35:17.821Z,94462.84
2022-07-30T17:37:44.475Z,94463.38
2022-07-30T17:40:29.439Z,94462.31
2022-07-30T17:43:04.915Z,94463.19
2022-07-30T17:45:35.975Z,94470.47
2022-07-30T17:48:04.328Z,94464.75
2022-07-30T17:50:32.445Z,94470.50
2022-07-30T17:52:59.728Z,94464.00
2022-07-30T17:55:28.153Z,94463.94
2022-07-30T17:57:55.142Z,94479.94
2022-07-30T18:00:22.978Z,94475.72
2022-07-30T18:02:49.556Z,94476.03
2022-07-30T18:05:16.305Z,94482.59
2022-07-30T18:07:44.106Z,94481.94
2022-07-30T18:10:11.801Z,94487.66
2022-07-30T18:12:39.051Z,94484.13
2022-07-30T18:15:15.696Z,94487.47
2022-07-30T18:17:42.315Z,94483.91
2022-07-30T18:20:09.568Z,94481.09
2022-07-30T18:22:36.191Z,94493.97
2022-07-30T18:25:03.196Z,94501.03
2022-07-30T18:27:34.396Z,94499.41
2022-07-30T18:30:01.055Z,94494.69
2022-07-30T18:32:27.751Z,94498.03
2022-07-30T18:34:54.698Z,94498.72
2022-07-30T18:37:21.364Z,94497.41
2022-07-30T18:39:48.059Z,94501.50
2022-07-30T18:42:14.771Z,94499.50
2022-07-30T18:44:41.416Z,94497.84
2022-07-30T18:47:08.015Z,94488.97
2022-07-30T18:49:37.172Z,94509.88
2022-07-30T18:52:06.077Z,94505.94
2022-07-30T18:54:33.085Z,94502.44
2022-07-30T18:56:59.680Z,94507.66
2022-07-30T18:59:26.302Z,94510.91
2022-07-30T19:01:52.905Z,94514.69
2022-07-30T19:04:19.778Z,94519.13
2022-07-30T19:06:46.367Z,94514.09
2022-07-30T19:09:16.847Z,94523.88
2022-07-30T19:11:45.790Z,94515.38
2022-07-30T19:14:13.277Z,94527.47
2022-07-30T19:16:41.811Z,94520.16
2022-07-30T19:19:09.288Z,94531.47
2022-07-30T19:21:35.917Z,94535.22
2022-07-30T19:24:02.620Z,94534.38
2022-07-30T19:26:30.404Z,94546.41
2022-07-30T19:28:56.983Z,94542.47
2022-07-30T19:31:23.584Z,94554.91
2022-07-30T19:33:50.831Z,94557.84
2022-07-30T19:36:20.722Z,94564.94
2022-07-30T19:38:48.926Z,94565.16
2022-07-30T19:41:16.528Z,94553.94
2022-07-30T19:43:43.337Z,94558.34
2022-07-30T19:46:24.481Z,94564.63
2022-07-30T19:48:51.175Z,94572.47
2022-07-30T19:51:21.027Z,94564.72
2022-07-30T19:53:52.220Z,94562.94
2022-07-30T19:59:14.560Z,94574.88
2022-07-30T20:01:43.034Z,94579.97
2022-07-30T20:04:11.175Z,94575.97
2022-07-30T20:06:38.534Z,94584.56
2022-07-30T20:09:05.164Z,94580.56
2022-07-30T20:11:40.853Z,94589.78
2022-07-30T20:14:10.379Z,94590.34
2022-07-30T20:16:37.398Z,94578.38
2022-07-30T20:19:05.035Z,94583.56
2022-07-30T20:21:57.141Z,94586.13
2022-07-30T20:24:20.248Z,94579.50
2022-07-30T20:26:47.613Z,94588.81
2022-07-30T20:32:01.009Z,94585.28
2022-07-30T20:34:30.714Z,94586.31
2022-07-30T20:36:59.092Z,94584.25
2022-07-30T20:39:41.696Z,94582.53
2022-07-30T20:42:08.300Z,94583.47
2022-07-30T20:44:40.807Z,94587.47
2022-07-30T20:47:11.169Z,94591.88
2022-07-30T20:49:39.107Z,94598.53
2022-07-30T20:52:07.268Z,94590.38
2022-07-30T20:54:34.148Z,94600.66
2022-07-30T20:57:00.818Z,94596.59
2022-07-30T20:59:27.646Z,94606.19
2022-07-30T21:01:55.824Z,94599.34
2022-07-30T21:04:25.254Z,94605.31
2022-07-30T21:06:52.527Z,94605.53
2022-07-30T21:09:20.212Z,94601.53
2022-07-30T21:11:50.645Z,94605.56
2022-07-30T21:14:18.642Z,94600.09
2022-07-30T21:16:46.617Z,94606.47
2022-07-30T21:19:19.113Z,94605.94
2022-07-30T21:21:50.232Z,94610.69
2022-07-30T21:24:19.752Z,94605.34
2022-07-30T21:26:51.226Z,94599.75
2022-07-30T21:29:18.978Z,94608.00
2022-07-30T21:34:40.389Z,94605.47
2022-07-30T21:37:09.132Z,94614.16
2022-07-30T21:39:39.777Z,94601.94
2022-07-30T21:42:06.939Z,94611.75
2022-07-30T21:44:33.538Z,94610.09
2022-07-30T21:47:00.206Z,94617.25
2022-07-30T21:49:27.948Z,94617.59
2022-07-30T21:51:58.607Z,94613.50
2022-07-30T21:54:29.174Z,94611.66
2022-07-30T21:56:58.317Z,94615.38
2022-07-30T21:59:25.237Z,94610.31
2022-07-30T22:01:55.209Z,94616.03
2022-07-30T22:04:22.242Z,94622.63
2022-07-30T22:06:48.853Z,94626.94
2022-07-30T22:09:18.823Z,94629.81
2022-07-30T22:11:53.951Z,94632.19
2022-07-30T22:14:20.586Z,94627.25
2022-07-30T22:16:47.556Z,94632.09
2022-07-30T22:19:15.261Z,94632.00
2022-07-30T22:21:46.531Z,94632.75
2022-07-30T22:24:28.992Z,94623.50
2022-07-30T22:27:14.640Z,94621.97
2022-07-30T22:29:43.289Z,94622.19
2022-07-30T22:32:11.506Z,94623.84
2022-07-30T22:34:38.166Z,94623.84
2022-07-30T22:37:04.740Z,94622.41
2022-07-30T22:39:51.021Z,94618.34
2022-07-30T22:42:20.112Z,94622.59
2022-07-30T22:44:47.453Z,94628.31
2022-07-30T22:47:18.695Z,94619.16
2022-07-30T22:49:49.672Z,94621.28
2022-07-30T22:52:24.213Z,94624.81
2022-07-30T22:54:53.253Z,94619.31
2022-07-30T22:57:23.468Z,94626.91
2022-07-30T22:59:57.996Z,94623.91
2022-07-30T23:02:25.711Z,94628.03
2022-07-30T23:04:54.739Z,94626.47
2022-07-30T23:07:23.374Z,94610.59
2022-07-30T23:09:51.826Z,94619.63
2022-07-30T23:12:17.077Z,94575.03
2022-07-30T23:12:18.142Z,94585.53
2022-07-30T23:12:20.271Z,94615.00
2022-07-30T23:12:27.407Z,94610.31
2022-07-30T23:14:47.747Z,94600.47
2022-07-30T23:17:14.692Z,94614.34
2022-07-30T23:19:41.283Z,94611.06
2022-07-30T23:22:07.926Z,94610.28
2022-07-30T23:24:34.582Z,94610.59
2022-07-30T23:27:02.288Z,94613.88
2022-07-30T23:29:29.186Z,94610.38
2022-07-30T23:31:55.961Z,94614.09
2022-07-30T23:34:22.924Z,94605.63
2022-07-30T23:36:49.740Z,94607.69
2022-07-30T23:39:16.459Z,94608.31
2022-07-30T23:41:43.719Z,94604.47
2022-07-30T23:44:10.333Z,94603.25
2022-07-30T23:46:37.187Z,94595.13
2022-07-30T23:49:05.062Z,94593.84
2022-07-30T23:51:33.490Z,94597.41
2022-07-30T23:54:01.107Z,94600.50
2022-07-30T23:56:27.745Z,94601.47
2022-07-30T23:58:54.699Z,94606.50
